Terminal Aerodrome Forecast
Issued by NWS

Home | Current Version | Previous Version | Text Only | Print | Product List | Glossary On
Versions: 1 2 3 4 5 6 7 8 9 10 11 12 13 14 15 16 17 18 19 20 21 22 23
869
FTUS43 KMQT 201724
TAFCMX
TAF
KCMX 201724Z 2018/2118 13003KT P6SM BKN100
     FM202100 13003KT 3SM BR OVC070
     FM210000 11003KT 2SM -SHRA OVC020
     FM210400 11003KT 1/4SM FG OVC003
     FM211400 12005KT 1SM BR OVC010
     FM211600 12006KT P6SM OVC010=

USA.gov is the U.S. government's official web portal to all federal, state and local government web resources and services.